sensor_id;sensor_type;location;lat;lon;timestamp;P1;durP1;ratioP1;P2;durP2;ratioP2
5702;SDS011;2876;51.738;10.050;2023-08-06T00:02:55;4.80;;;3.30;;
5702;SDS011;2876;51.738;10.050;2023-08-06T00:08:57;7.33;;;3.37;;
5702;SDS011;2876;51.738;10.050;2023-08-06T00:15:02;3.97;;;3.50;;
5702;SDS011;2876;51.738;10.050;2023-08-06T00:21:04;3.33;;;3.03;;
5702;SDS011;2876;51.738;10.050;2023-08-06T00:27:20;3.30;;;2.70;;
5702;SDS011;2876;51.738;10.050;2023-08-06T00:33:23;3.07;;;2.77;;
5702;SDS011;2876;51.738;10.050;2023-08-06T00:39:28;3.90;;;2.70;;
5702;SDS011;2876;51.738;10.050;2023-08-06T00:45:37;4.37;;;2.60;;
5702;SDS011;2876;51.738;10.050;2023-08-06T00:51:42;2.73;;;2.33;;
5702;SDS011;2876;51.738;10.050;2023-08-06T00:57:59;5.57;;;3.10;;
5702;SDS011;2876;51.738;10.050;2023-08-06T01:04:01;8.00;;;3.00;;
5702;SDS011;2876;51.738;10.050;2023-08-06T01:17:14;3.07;;;2.70;;
5702;SDS011;2876;51.738;10.050;2023-08-06T01:23:16;3.93;;;2.40;;
5702;SDS011;2876;51.738;10.050;2023-08-06T01:29:34;7.30;;;2.93;;
5702;SDS011;2876;51.738;10.050;2023-08-06T01:35:55;2.50;;;2.30;;
5702;SDS011;2876;51.738;10.050;2023-08-06T01:42:01;2.80;;;2.33;;
5702;SDS011;2876;51.738;10.050;2023-08-06T01:48:24;3.63;;;3.03;;
5702;SDS011;2876;51.738;10.050;2023-08-06T01:54:26;4.87;;;2.57;;
5702;SDS011;2876;51.738;10.050;2023-08-06T02:08:08;5.83;;;2.40;;
5702;SDS011;2876;51.738;10.050;2023-08-06T02:14:09;5.03;;;2.40;;
5702;SDS011;2876;51.738;10.050;2023-08-06T02:20:11;2.53;;;2.33;;
5702;SDS011;2876;51.738;10.050;2023-08-06T02:26:15;3.80;;;2.40;;
5702;SDS011;2876;51.738;10.050;2023-08-06T02:32:21;4.43;;;3.00;;
5702;SDS011;2876;51.738;10.050;2023-08-06T02:38:23;7.70;;;2.43;;
5702;SDS011;2876;51.738;10.050;2023-08-06T02:44:28;2.23;;;2.03;;
5702;SDS011;2876;51.738;10.050;2023-08-06T02:50:30;3.70;;;2.30;;
5702;SDS011;2876;51.738;10.050;2023-08-06T02:56:43;5.50;;;2.90;;
5702;SDS011;2876;51.738;10.050;2023-08-06T03:09:41;3.30;;;3.00;;
5702;SDS011;2876;51.738;10.050;2023-08-06T03:15:57;3.93;;;3.00;;
5702;SDS011;2876;51.738;10.050;2023-08-06T03:22:00;3.47;;;2.70;;
5702;SDS011;2876;51.738;10.050;2023-08-06T03:28:10;7.10;;;3.30;;
5702;SDS011;2876;51.738;10.050;2023-08-06T03:34:18;5.17;;;3.43;;
5702;SDS011;2876;51.738;10.050;2023-08-06T03:40:25;9.10;;;2.70;;
5702;SDS011;2876;51.738;10.050;2023-08-06T03:46:29;4.87;;;2.23;;
5702;SDS011;2876;51.738;10.050;2023-08-06T03:52:36;2.70;;;2.50;;
5702;SDS011;2876;51.738;10.050;2023-08-06T03:58:38;3.00;;;2.70;;
5702;SDS011;2876;51.738;10.050;2023-08-06T04:04:40;3.47;;;2.20;;
5702;SDS011;2876;51.738;10.050;2023-08-06T04:10:42;4.00;;;2.90;;
5702;SDS011;2876;51.738;10.050;2023-08-06T04:16:44;2.40;;;2.20;;
5702;SDS011;2876;51.738;10.050;2023-08-06T04:22:46;8.20;;;2.93;;
5702;SDS011;2876;51.738;10.050;2023-08-06T04:28:48;9.93;;;2.70;;
5702;SDS011;2876;51.738;10.050;2023-08-06T04:34:50;3.70;;;2.90;;
5702;SDS011;2876;51.738;10.050;2023-08-06T04:40:52;9.67;;;2.80;;
5702;SDS011;2876;51.738;10.050;2023-08-06T04:46:54;3.43;;;2.27;;
5702;SDS011;2876;51.738;10.050;2023-08-06T04:52:59;3.20;;;2.90;;
5702;SDS011;2876;51.738;10.050;2023-08-06T04:59:01;4.13;;;2.97;;
5702;SDS011;2876;51.738;10.050;2023-08-06T05:05:03;5.00;;;2.60;;
5702;SDS011;2876;51.738;10.050;2023-08-06T05:11:06;2.80;;;2.57;;
5702;SDS011;2876;51.738;10.050;2023-08-06T05:17:08;3.23;;;2.73;;
5702;SDS011;2876;51.738;10.050;2023-08-06T05:23:10;3.80;;;2.90;;
5702;SDS011;2876;51.738;10.050;2023-08-06T05:29:13;2.80;;;2.60;;
5702;SDS011;2876;51.738;10.050;2023-08-06T05:35:15;2.90;;;2.33;;
5702;SDS011;2876;51.738;10.050;2023-08-06T05:41:17;2.60;;;1.97;;
5702;SDS011;2876;51.738;10.050;2023-08-06T05:47:19;2.57;;;2.33;;
5702;SDS011;2876;51.738;10.050;2023-08-06T05:53:21;3.07;;;2.70;;
5702;SDS011;2876;51.738;10.050;2023-08-06T05:59:23;3.63;;;2.53;;
5702;SDS011;2876;51.738;10.050;2023-08-06T06:05:25;3.00;;;2.70;;
5702;SDS011;2876;51.738;10.050;2023-08-06T06:11:27;2.50;;;2.30;;
5702;SDS011;2876;51.738;10.050;2023-08-06T06:17:28;1.90;;;1.80;;
5702;SDS011;2876;51.738;10.050;2023-08-06T06:23:31;8.73;;;3.10;;
5702;SDS011;2876;51.738;10.050;2023-08-06T06:29:33;2.87;;;2.07;;
5702;SDS011;2876;51.738;10.050;2023-08-06T06:35:34;2.60;;;2.13;;
5702;SDS011;2876;51.738;10.050;2023-08-06T06:41:37;2.00;;;1.90;;
5702;SDS011;2876;51.738;10.050;2023-08-06T06:47:39;2.20;;;1.80;;
5702;SDS011;2876;51.738;10.050;2023-08-06T06:53:41;2.10;;;2.00;;
5702;SDS011;2876;51.738;10.050;2023-08-06T06:59:42;2.37;;;1.90;;
5702;SDS011;2876;51.738;10.050;2023-08-06T07:05:45;5.93;;;2.10;;
5702;SDS011;2876;51.738;10.050;2023-08-06T07:11:46;3.60;;;2.13;;
5702;SDS011;2876;51.738;10.050;2023-08-06T07:17:49;2.70;;;2.30;;
5702;SDS011;2876;51.738;10.050;2023-08-06T07:23:51;2.77;;;2.50;;
5702;SDS011;2876;51.738;10.050;2023-08-06T07:29:53;3.03;;;2.20;;
5702;SDS011;2876;51.738;10.050;2023-08-06T07:35:55;3.93;;;2.20;;
5702;SDS011;2876;51.738;10.050;2023-08-06T07:41:57;2.77;;;2.17;;
5702;SDS011;2876;51.738;10.050;2023-08-06T07:47:59;2.40;;;1.80;;
5702;SDS011;2876;51.738;10.050;2023-08-06T07:54:01;2.73;;;2.47;;
5702;SDS011;2876;51.738;10.050;2023-08-06T08:00:03;2.97;;;2.40;;
5702;SDS011;2876;51.738;10.050;2023-08-06T08:06:06;3.67;;;1.97;;
5702;SDS011;2876;51.738;10.050;2023-08-06T08:12:08;2.33;;;2.13;;
5702;SDS011;2876;51.738;10.050;2023-08-06T08:18:10;2.10;;;1.83;;
5702;SDS011;2876;51.738;10.050;2023-08-06T08:24:12;3.97;;;2.00;;
5702;SDS011;2876;51.738;10.050;2023-08-06T08:30:14;2.40;;;2.20;;
5702;SDS011;2876;51.738;10.050;2023-08-06T08:36:16;2.27;;;1.67;;
5702;SDS011;2876;51.738;10.050;2023-08-06T08:42:18;2.13;;;1.63;;
5702;SDS011;2876;51.738;10.050;2023-08-06T08:48:21;1.93;;;1.67;;
5702;SDS011;2876;51.738;10.050;2023-08-06T08:54:23;2.33;;;2.03;;
5702;SDS011;2876;51.738;10.050;2023-08-06T09:00:26;2.60;;;2.00;;
5702;SDS011;2876;51.738;10.050;2023-08-06T09:06:30;3.60;;;2.20;;
5702;SDS011;2876;51.738;10.050;2023-08-06T09:12:37;2.60;;;2.40;;
5702;SDS011;2876;51.738;10.050;2023-08-06T09:18:39;2.40;;;2.10;;
5702;SDS011;2876;51.738;10.050;2023-08-06T09:24:42;3.10;;;2.03;;
5702;SDS011;2876;51.738;10.050;2023-08-06T09:30:44;1.87;;;1.47;;
5702;SDS011;2876;51.738;10.050;2023-08-06T09:36:50;3.67;;;1.90;;
5702;SDS011;2876;51.738;10.050;2023-08-06T09:42:54;6.60;;;3.50;;
5702;SDS011;2876;51.738;10.050;2023-08-06T09:48:57;3.67;;;1.77;;
5702;SDS011;2876;51.738;10.050;2023-08-06T09:54:59;5.17;;;1.70;;
5702;SDS011;2876;51.738;10.050;2023-08-06T10:01:03;1.80;;;1.70;;
5702;SDS011;2876;51.738;10.050;2023-08-06T10:07:06;2.27;;;1.93;;
5702;SDS011;2876;51.738;10.050;2023-08-06T10:13:08;1.97;;;1.87;;
5702;SDS011;2876;51.738;10.050;2023-08-06T10:19:11;2.40;;;1.67;;
5702;SDS011;2876;51.738;10.050;2023-08-06T10:25:18;2.20;;;2.00;;
5702;SDS011;2876;51.738;10.050;2023-08-06T10:31:20;2.47;;;1.50;;
5702;SDS011;2876;51.738;10.050;2023-08-06T10:44:16;1.93;;;1.73;;
5702;SDS011;2876;51.738;10.050;2023-08-06T10:50:19;3.63;;;2.03;;
5702;SDS011;2876;51.738;10.050;2023-08-06T10:56:22;2.10;;;1.90;;
5702;SDS011;2876;51.738;10.050;2023-08-06T11:02:29;4.80;;;2.03;;
5702;SDS011;2876;51.738;10.050;2023-08-06T11:08:37;2.27;;;2.07;;
5702;SDS011;2876;51.738;10.050;2023-08-06T11:14:51;1.80;;;1.70;;
5702;SDS011;2876;51.738;10.050;2023-08-06T11:20:53;2.90;;;2.20;;
5702;SDS011;2876;51.738;10.050;2023-08-06T11:26:55;4.57;;;3.37;;
5702;SDS011;2876;51.738;10.050;2023-08-06T11:32:58;3.27;;;1.87;;
5702;SDS011;2876;51.738;10.050;2023-08-06T11:39:00;1.77;;;1.60;;
5702;SDS011;2876;51.738;10.050;2023-08-06T11:45:04;2.07;;;1.70;;
5702;SDS011;2876;51.738;10.050;2023-08-06T11:51:11;1.67;;;1.57;;
5702;SDS011;2876;51.738;10.050;2023-08-06T11:57:16;1.50;;;1.40;;
5702;SDS011;2876;51.738;10.050;2023-08-06T12:03:19;3.83;;;1.80;;
5702;SDS011;2876;51.738;10.050;2023-08-06T12:09:21;1.43;;;1.33;;
5702;SDS011;2876;51.738;10.050;2023-08-06T12:15:24;3.30;;;1.30;;
5702;SDS011;2876;51.738;10.050;2023-08-06T12:21:26;1.50;;;1.40;;
5702;SDS011;2876;51.738;10.050;2023-08-06T12:27:28;2.73;;;1.53;;
5702;SDS011;2876;51.738;10.050;2023-08-06T12:33:30;2.93;;;1.30;;
5702;SDS011;2876;51.738;10.050;2023-08-06T12:39:32;2.50;;;1.90;;
5702;SDS011;2876;51.738;10.050;2023-08-06T12:45:36;2.13;;;1.57;;
5702;SDS011;2876;51.738;10.050;2023-08-06T12:51:38;1.60;;;1.50;;
5702;SDS011;2876;51.738;10.050;2023-08-06T12:57:40;1.67;;;1.50;;
5702;SDS011;2876;51.738;10.050;2023-08-06T13:03:45;1.67;;;1.57;;
5702;SDS011;2876;51.738;10.050;2023-08-06T13:09:47;2.00;;;1.83;;
5702;SDS011;2876;51.738;10.050;2023-08-06T13:15:49;1.80;;;1.60;;
5702;SDS011;2876;51.738;10.050;2023-08-06T13:27:59;1.67;;;1.57;;
5702;SDS011;2876;51.738;10.050;2023-08-06T13:34:01;1.43;;;1.33;;
5702;SDS011;2876;51.738;10.050;2023-08-06T13:40:03;2.27;;;1.53;;
5702;SDS011;2876;51.738;10.050;2023-08-06T13:46:06;1.40;;;1.30;;
5702;SDS011;2876;51.738;10.050;2023-08-06T13:52:08;4.23;;;1.47;;
5702;SDS011;2876;51.738;10.050;2023-08-06T13:58:22;1.30;;;1.20;;
5702;SDS011;2876;51.738;10.050;2023-08-06T14:04:25;1.80;;;1.60;;
5702;SDS011;2876;51.738;10.050;2023-08-06T14:10:27;2.80;;;1.93;;
5702;SDS011;2876;51.738;10.050;2023-08-06T14:16:29;2.63;;;1.57;;
5702;SDS011;2876;51.738;10.050;2023-08-06T14:22:31;2.00;;;1.80;;
5702;SDS011;2876;51.738;10.050;2023-08-06T14:28:33;2.20;;;1.77;;
5702;SDS011;2876;51.738;10.050;2023-08-06T14:34:35;1.90;;;1.70;;
5702;SDS011;2876;51.738;10.050;2023-08-06T14:40:37;4.00;;;1.70;;
5702;SDS011;2876;51.738;10.050;2023-08-06T14:46:40;2.00;;;1.80;;
5702;SDS011;2876;51.738;10.050;2023-08-06T14:52:42;1.70;;;1.50;;
5702;SDS011;2876;51.738;10.050;2023-08-06T14:58:44;1.40;;;1.30;;
5702;SDS011;2876;51.738;10.050;2023-08-06T15:04:46;1.63;;;1.50;;
5702;SDS011;2876;51.738;10.050;2023-08-06T15:10:52;1.53;;;1.43;;
5702;SDS011;2876;51.738;10.050;2023-08-06T15:16:54;1.47;;;1.37;;
5702;SDS011;2876;51.738;10.050;2023-08-06T15:22:58;1.90;;;1.50;;
5702;SDS011;2876;51.738;10.050;2023-08-06T15:29:00;2.20;;;1.87;;
5702;SDS011;2876;51.738;10.050;2023-08-06T15:35:02;1.40;;;1.30;;
5702;SDS011;2876;51.738;10.050;2023-08-06T15:41:07;5.00;;;1.80;;
5702;SDS011;2876;51.738;10.050;2023-08-06T15:47:09;1.33;;;1.23;;
5702;SDS011;2876;51.738;10.050;2023-08-06T15:53:12;1.63;;;1.53;;
5702;SDS011;2876;51.738;10.050;2023-08-06T15:59:25;2.47;;;1.40;;
5702;SDS011;2876;51.738;10.050;2023-08-06T16:05:31;2.50;;;2.17;;
5702;SDS011;2876;51.738;10.050;2023-08-06T16:11:33;2.40;;;2.07;;
5702;SDS011;2876;51.738;10.050;2023-08-06T16:17:35;2.53;;;2.10;;
5702;SDS011;2876;51.738;10.050;2023-08-06T16:23:37;5.80;;;2.30;;
5702;SDS011;2876;51.738;10.050;2023-08-06T16:29:39;3.40;;;2.30;;
5702;SDS011;2876;51.738;10.050;2023-08-06T16:35:41;2.47;;;2.07;;
5702;SDS011;2876;51.738;10.050;2023-08-06T16:41:43;2.47;;;2.00;;
5702;SDS011;2876;51.738;10.050;2023-08-06T16:47:45;3.03;;;2.00;;
5702;SDS011;2876;51.738;10.050;2023-08-06T16:53:47;3.80;;;2.17;;
5702;SDS011;2876;51.738;10.050;2023-08-06T16:59:49;2.10;;;1.90;;
5702;SDS011;2876;51.738;10.050;2023-08-06T17:05:51;3.60;;;2.70;;
5702;SDS011;2876;51.738;10.050;2023-08-06T17:11:53;4.63;;;3.37;;
5702;SDS011;2876;51.738;10.050;2023-08-06T17:17:55;1.60;;;1.50;;
5702;SDS011;2876;51.738;10.050;2023-08-06T17:24:00;3.57;;;1.90;;
5702;SDS011;2876;51.738;10.050;2023-08-06T17:30:02;1.50;;;1.40;;
5702;SDS011;2876;51.738;10.050;2023-08-06T17:36:04;1.50;;;1.40;;
5702;SDS011;2876;51.738;10.050;2023-08-06T17:42:06;3.30;;;1.60;;
5702;SDS011;2876;51.738;10.050;2023-08-06T17:48:11;2.30;;;1.80;;
5702;SDS011;2876;51.738;10.050;2023-08-06T17:54:16;2.80;;;2.10;;
5702;SDS011;2876;51.738;10.050;2023-08-06T18:00:18;2.53;;;2.27;;
5702;SDS011;2876;51.738;10.050;2023-08-06T18:06:20;3.07;;;2.10;;
5702;SDS011;2876;51.738;10.050;2023-08-06T18:12:22;1.77;;;1.67;;
5702;SDS011;2876;51.738;10.050;2023-08-06T18:18:24;2.00;;;1.90;;
5702;SDS011;2876;51.738;10.050;2023-08-06T18:24:35;2.10;;;1.90;;
5702;SDS011;2876;51.738;10.050;2023-08-06T18:30:41;1.70;;;1.60;;
5702;SDS011;2876;51.738;10.050;2023-08-06T18:36:47;2.70;;;2.13;;
5702;SDS011;2876;51.738;10.050;2023-08-06T18:42:51;2.70;;;2.40;;
5702;SDS011;2876;51.738;10.050;2023-08-06T18:49:01;2.03;;;1.93;;
5702;SDS011;2876;51.738;10.050;2023-08-06T18:55:06;2.10;;;1.90;;
5702;SDS011;2876;51.738;10.050;2023-08-06T19:01:11;2.70;;;2.20;;
5702;SDS011;2876;51.738;10.050;2023-08-06T19:07:16;3.93;;;2.17;;
5702;SDS011;2876;51.738;10.050;2023-08-06T19:13:18;1.83;;;1.67;;
5702;SDS011;2876;51.738;10.050;2023-08-06T19:19:20;1.63;;;1.30;;
5702;SDS011;2876;51.738;10.050;2023-08-06T19:25:22;2.60;;;1.87;;
5702;SDS011;2876;51.738;10.050;2023-08-06T19:31:26;1.63;;;1.53;;
5702;SDS011;2876;51.738;10.050;2023-08-06T19:37:28;1.80;;;1.70;;
5702;SDS011;2876;51.738;10.050;2023-08-06T19:43:30;2.37;;;1.53;;
5702;SDS011;2876;51.738;10.050;2023-08-06T19:49:34;1.40;;;1.30;;
5702;SDS011;2876;51.738;10.050;2023-08-06T19:55:39;1.60;;;1.50;;
5702;SDS011;2876;51.738;10.050;2023-08-06T20:01:41;2.03;;;1.63;;
5702;SDS011;2876;51.738;10.050;2023-08-06T20:07:44;1.70;;;1.60;;
5702;SDS011;2876;51.738;10.050;2023-08-06T20:13:46;1.83;;;1.73;;
5702;SDS011;2876;51.738;10.050;2023-08-06T20:19:48;2.60;;;2.03;;
5702;SDS011;2876;51.738;10.050;2023-08-06T20:25:50;2.03;;;1.80;;
5702;SDS011;2876;51.738;10.050;2023-08-06T20:31:52;6.13;;;2.30;;
5702;SDS011;2876;51.738;10.050;2023-08-06T20:37:55;2.33;;;2.13;;
5702;SDS011;2876;51.738;10.050;2023-08-06T20:43:57;2.33;;;2.00;;
5702;SDS011;2876;51.738;10.050;2023-08-06T20:49:59;1.93;;;1.80;;
5702;SDS011;2876;51.738;10.050;2023-08-06T20:56:02;3.30;;;2.10;;
5702;SDS011;2876;51.738;10.050;2023-08-06T21:02:05;3.97;;;1.93;;
5702;SDS011;2876;51.738;10.050;2023-08-06T21:08:07;3.70;;;1.80;;
5702;SDS011;2876;51.738;10.050;2023-08-06T21:14:09;2.50;;;2.30;;
5702;SDS011;2876;51.738;10.050;2023-08-06T21:20:11;2.40;;;1.90;;
5702;SDS011;2876;51.738;10.050;2023-08-06T21:26:13;1.60;;;1.50;;
5702;SDS011;2876;51.738;10.050;2023-08-06T21:32:16;1.97;;;1.77;;
5702;SDS011;2876;51.738;10.050;2023-08-06T21:38:22;2.17;;;2.07;;
5702;SDS011;2876;51.738;10.050;2023-08-06T21:44:24;3.60;;;1.83;;
5702;SDS011;2876;51.738;10.050;2023-08-06T21:56:37;2.67;;;1.67;;
5702;SDS011;2876;51.738;10.050;2023-08-06T22:02:39;2.23;;;2.00;;
5702;SDS011;2876;51.738;10.050;2023-08-06T22:08:42;2.27;;;2.07;;
5702;SDS011;2876;51.738;10.050;2023-08-06T22:14:44;2.23;;;2.03;;
5702;SDS011;2876;51.738;10.050;2023-08-06T22:20:46;1.93;;;1.83;;
5702;SDS011;2876;51.738;10.050;2023-08-06T22:26:49;1.73;;;1.63;;
5702;SDS011;2876;51.738;10.050;2023-08-06T22:32:52;1.70;;;1.60;;
5702;SDS011;2876;51.738;10.050;2023-08-06T22:38:54;3.20;;;1.83;;
5702;SDS011;2876;51.738;10.050;2023-08-06T22:44:56;3.53;;;2.27;;
5702;SDS011;2876;51.738;10.050;2023-08-06T22:50:58;2.50;;;2.30;;
5702;SDS011;2876;51.738;10.050;2023-08-06T22:57:00;3.80;;;2.60;;
5702;SDS011;2876;51.738;10.050;2023-08-06T23:03:02;4.40;;;3.50;;
5702;SDS011;2876;51.738;10.050;2023-08-06T23:09:11;3.97;;;3.63;;
5702;SDS011;2876;51.738;10.050;2023-08-06T23:15:13;4.70;;;3.73;;
5702;SDS011;2876;51.738;10.050;2023-08-06T23:21:15;6.40;;;4.50;;
5702;SDS011;2876;51.738;10.050;2023-08-06T23:27:18;6.40;;;5.60;;
5702;SDS011;2876;51.738;10.050;2023-08-06T23:33:20;7.03;;;6.10;;
5702;SDS011;2876;51.738;10.050;2023-08-06T23:39:22;5.13;;;4.70;;
5702;SDS011;2876;51.738;10.050;2023-08-06T23:45:24;6.20;;;4.60;;
5702;SDS011;2876;51.738;10.050;2023-08-06T23:51:26;9.70;;;4.60;;
5702;SDS011;2876;51.738;10.050;2023-08-06T23:57:28;4.87;;;3.57;;
